Data for 06/01/2008

Time Sea-Level Adjusted Pressure Absolute Pressure Temperature Relative Humidity Dew Point   
(mb) (inHg) (mb) (inHg) (C) (F) (%) (C) (F)
00:05 1020 30.12 849 25.07 12 53.6 74 7.5 45.5
00:10 1020 30.12 849 25.07 11.7 53 77 7.7 45.9
00:15 1020 30.12 849 25.07 11.4 52.5 77 7.4 45.4
00:20 1020 30.12 849 25.07 11.4 52.5 77 7.5 45.6
00:25 1020 30.12 849 25.07 11.4 52.4 80 8 46.5
00:30 1020 30.12 849 25.07 11.2 52.1 81 8 46.4
00:35 1020 30.12 849 25.07 11.1 52.1 81 8.1 46.6
00:40 1020 30.12 849 25.07 11.1 52 81 8 46.4
00:45 1020 30.12 849 25.07 11.1 52.1 82 8.1 46.6
00:50 1020 30.12 849 25.07 11 51.9 81 8 46.4
00:55 1020 30.12 849 25.07 10.9 51.7 81 7.8 46
01:00 1020 30.12 849 25.07 11 51.7 80 7.6 45.7
01:05 1020 30.12 849 25.07 10.9 51.7 80 7.7 45.8
01:10 1020 30.12 849 25.07 10.8 51.4 81 7.6 45.7
01:15 1020 30.12 849 25.07 10.6 51 81 7.5 45.4
01:20 1020 30.12 849 25.07 10.5 50.9 80 7.3 45.2
01:25 1020 30.12 849 25.07 10.5 50.9 80 7.2 44.9
01:30 1020 30.12 849 25.07 10.5 50.9 79 7.1 44.8
01:35 1020 30.12 849 25.07 10.6 51 78 6.9 44.5
01:40 1019 30.09 849 25.07 10.6 51.1 77 6.8 44.2
01:45 1019 30.09 849 25.07 10.6 51.2 77 6.8 44.2
01:50 1019 30.09 848 25.04 10.4 50.8 78 6.7 44.1
01:55 1019 30.09 848 25.04 10.3 50.5 78 6.7 44
02:00 1019 30.09 848 25.04 10.4 50.7 76 6.4 43.5
02:05 1019 30.09 848 25.04 10.4 50.8 77 6.5 43.7
02:10 1019 30.09 848 25.04 10.2 50.3 78 6.5 43.7
02:15 1019 30.09 848 25.04 10 49.9 78 6.4 43.4
02:20 1019 30.09 848 25.04 9.9 49.8 78 6.3 43.4
02:25 1019 30.09 848 25.04 9.6 49.2 80 6.2 43.2
02:30 1019 30.09 848 25.04 9.5 49.1 79 6.1 43
02:35 1019 30.09 848 25.04 9.5 49.2 79 6 42.9
02:40 1019 30.09 848 25.04 9.6 49.2 79 6.1 42.9
02:45 1019 30.09 848 25.04 9.5 49 79 6.1 42.9
02:50 1019 30.09 848 25.04 9.5 49.1 78 6 42.7
02:55 1019 30.09 848 25.04 9.5 49 78 5.9 42.5
03:00 1019 30.09 848 25.04 9.6 49.3 77 5.8 42.4
03:05 1019 30.09 848 25.04 9.6 49.3 77 5.7 42.3
03:10 1019 30.09 848 25.04 9.6 49.2 77 5.8 42.4
03:15 1019 30.09 848 25.04 9.5 49.1 77 5.7 42.3
03:20 1019 30.09 848 25.04 9.3 48.8 78 5.6 42.1
03:25 1019 30.09 848 25.04 9.4 48.9 77 5.7 42.2
03:30 1019 30.09 848 25.04 9.4 49 77 5.5 42
03:35 1019 30.09 848 25.04 9.4 48.9 77 5.5 42
03:40 1019 30.09 848 25.04 9.2 48.5 78 5.5 41.9
03:45 1019 30.09 848 25.04 9 48.2 78 5.4 41.7
03:50 1019 30.09 848 25.04 9 48.2 78 5.4 41.7
03:55 1019 30.09 848 25.04 8.8 47.9 79 5.3 41.6
04:00 1019 30.09 848 25.04 8.8 47.9 78 5.3 41.5
04:05 1019 30.09 848 25.04 8.8 47.8 77 5 41.1
04:10 1019 30.09 848 25.04 9.1 48.4 76 5.1 41.2
04:15 1019 30.09 848 25.04 9.3 48.8 75 5.2 41.3
04:20 1019 30.09 848 25.04 9.3 48.7 76 5.2 41.4
04:25 1019 30.09 848 25.04 8.8 47.9 76 4.9 40.8
04:30 1019 30.09 848 25.04 8.7 47.6 78 5 41
04:35 1019 30.09 848 25.04 8.4 47.1 78 4.8 40.7
04:40 1019 30.09 848 25.04 8.2 46.8 79 4.8 40.7
04:45 1019 30.09 848 25.04 8 46.4 80 4.7 40.5
04:50 1019 30.09 848 25.04 7.8 46 80 4.6 40.4
04:55 1019 30.09 848 25.04 8 46.4 79 4.6 40.2
05:00 1019 30.09 848 25.04 8.6 47.4 77 4.8 40.7
05:05 1019 30.09 848 25.04 8.7 47.6 77 4.8 40.6
05:10 1019 30.09 848 25.04 8.4 47.2 78 4.8 40.6
05:15 1019 30.09 848 25.04 8 46.4 80 4.7 40.5
05:20 1019 30.09 848 25.04 7.7 45.8 81 4.6 40.3
05:25 1019 30.09 848 25.04 7.9 46.1 80 4.7 40.4
05:30 1019 30.09 848 25.04 7.9 46.1 80 4.7 40.4
05:35 1019 30.09 848 25.04 7.4 45.4 81 4.4 40
05:40 1019 30.09 848 25.04 7.1 44.8 82 4.3 39.8
05:45 1019 30.09 848 25.04 6.9 44.5 83 4.3 39.7
05:50 1019 30.09 848 25.04 6.8 44.3 84 4.3 39.7
05:55 1019 30.09 848 25.04 6.7 44.1 84 4.3 39.7
06:00 1019 30.09 848 25.04 7 44.5 83 4.3 39.7
06:05 1019 30.09 848 25.04 7.3 45.1 82 4.4 40
06:10 1019 30.09 848 25.04 7.5 45.5 81 4.5 40.2
06:15 1019 30.09 848 25.04 7.8 46 81 4.7 40.5
06:20 1019 30.09 848 25.04 8.1 46.5 80 4.9 40.7
06:25 1019 30.09 848 25.04 8.2 46.8 80 4.9 40.8
06:30 1019 30.09 848 25.04 8.3 46.9 80 5 41
06:35 1019 30.09 848 25.04 8.5 47.3 79 5 41.1
06:40 1019 30.09 848 25.04 8.8 47.8 78 5.2 41.4
06:45 1019 30.09 848 25.04 9 48.2 77 5.2 41.4
06:50 1019 30.09 848 25.04 9 48.3 77 5.3 41.5
06:55 1019 30.09 848 25.04 9.1 48.4 77 5.4 41.7
07:00 1019 30.09 848 25.04 9.4 49 75 5.3 41.6
07:05 1019 30.09 848 25.04 9.6 49.3 75 5.5 41.9
07:10 1019 30.09 848 25.04 9.8 49.6 75 5.6 42
07:15 1019 30.09 848 25.04 10 50 75 5.7 42.3
07:20 1019 30.09 848 25.04 10.1 50.1 75 5.9 42.6
07:25 1019 30.09 848 25.04 10 50.1 75 5.8 42.4
07:30 1019 30.09 848 25.04 10.4 50.8 74 6 42.9
07:35 1019 30.09 848 25.04 10.6 51 74 6.1 43.1
07:40 1019 30.09 848 25.04 10.8 51.5 74 6.4 43.4
07:45 1019 30.09 848 25.04 11.1 52 72 6.4 43.5
07:50 1019 30.09 848 25.04 11.2 52.1 71 6.2 43.2
07:55 1019 30.09 848 25.04 11.4 52.4 70 6.1 43.1
08:00 1019 30.09 848 25.04 11.8 53.3 68 6.2 43.1
08:05 1019 30.09 848 25.04 12.3 54.2 67 6.4 43.5
08:10 1019 30.09 848 25.04 13.2 55.7 64 6.6 43.9
08:15 1019 30.09 848 25.04 14.1 57.5 60 6.6 43.9
08:20 1019 30.09 848 25.04 14.3 57.8 55 5.6 42
08:25 1019 30.09 848 25.04 14.7 58.4 54 5.5 41.9
08:30 1019 30.09 848 25.04 14.7 58.4 53 5.2 41.3
08:35 1019 30.09 848 25.04 15 58.9 53 5.6 42.1
08:40 1019 30.09 848 25.04 15.2 59.3 53 5.6 42.1
08:45 1019 30.09 848 25.04 14.8 58.6 54 5.7 42.3
08:50 1019 30.09 848 25.04 14.5 58.1 57 6.1 43
08:55 1019 30.09 848 25.04 14.2 57.6 56 5.7 42.3
09:00 1019 30.09 848 25.04 14.5 58.2 55 5.8 42.4
09:05 1019 30.09 848 25.04 14.8 58.6 54 5.7 42.3
09:10 1019 30.09 848 25.04 14.7 58.4 54 5.5 42
09:15 1019 30.09 848 25.04 15.2 59.4 52 5.5 41.8
09:20 1019 30.09 848 25.04 15.1 59.2 52 5.5 41.9
09:25 1019 30.09 848 25.04 15.4 59.6 52 5.6 42.2
09:30 1019 30.09 848 25.04 14.7 58.4 55 5.8 42.4
09:35 1019 30.09 848 25.04 14.4 57.9 55 5.5 41.8
09:40 1019 30.09 848 25.04 14.8 58.6 55 5.8 42.5
09:45 1019 30.09 848 25.04 15.5 60 52 6 42.7
09:50 1019 30.09 848 25.04 16.2 61.1 52 6.3 43.3
09:55 1019 30.09 848 25.04 15.8 60.5 54 6.8 44.2
10:00 1019 30.09 848 25.04 15.6 60 53 6.2 43.1
10:05 1019 30.09 848 25.04 16.2 61.2 52 6.5 43.8
10:10 1019 30.09 848 25.04 15.7 60.2 53 6.2 43.1
10:15 1019 30.09 848 25.04 15.8 60.5 53 6.4 43.5
10:20 1019 30.09 848 25.04 16.3 61.3 52 6.4 43.6
10:25 1019 30.09 848 25.04 17.3 63.1 50 6.9 44.4
10:30 1019 30.09 848 25.04 17.6 63.7 50 7.2 44.9
10:35 1019 30.09 848 25.04 16.7 62.1 54 7.5 45.5
10:40 1019 30.09 848 25.04 16.3 61.3 56 7.6 45.6
10:45 1019 30.09 848 25.04 16.1 61.1 57 7.6 45.7
10:50 1019 30.09 848 25.04 16.5 61.7 53 6.9 44.4
10:55 1019 30.09 848 25.04 16.6 61.9 54 7.4 45.3
11:00 1018 30.06 848 25.04 16.6 61.8 54 7.2 45
11:05 1018 30.06 848 25.04 17.3 63.2 51 7.3 45.2
11:10 1018 30.06 848 25.04 17.6 63.7 52 7.7 45.8
11:15 1018 30.06 848 25.04 17.6 63.8 49 7 44.6
11:20 1018 30.06 848 25.04 17.1 62.8 50 6.8 44.2
11:25 1018 30.06 848 25.04 17.4 63.2 49 6.8 44.2
11:30 1018 30.06 847 25.01 18.7 65.7 45 6.6 43.8
11:35 1018 30.06 847 25.01 19 66.3 46 7.3 45.2
11:40 1018 30.06 847 25.01 18.8 65.9 46 7 44.6
11:45 1018 30.06 847 25.01 19.2 66.6 44 6.7 44
11:50 1018 30.06 847 25.01 18.3 64.9 46 6.4 43.6
11:55 1018 30.06 847 25.01 19.3 66.7 42 6.3 43.4
12:00 1018 30.06 847 25.01 20 67.9 41 6.3 43.4
12:05 1018 30.06 847 25.01 19.2 66.6 42 6.2 43.1
12:10 1018 30.06 847 25.01 19.5 67 42 6.5 43.7
12:15 1018 30.06 847 25.01 20.6 69 41 7.1 44.8
12:20 1018 30.06 847 25.01 21.2 70.1 40 7 44.7
12:25 1018 30.06 847 25.01 21.1 70 37 6 42.8
12:30 1018 30.06 847 25.01 20.8 69.5 40 6.7 44.1
12:35 1018 30.06 847 25.01 20.8 69.5 38 6.3 43.4
12:40 1018 30.06 847 25.01 20.6 69 39 6.1 43
12:45 1018 30.06 847 25.01 21.5 70.8 36 5.8 42.5
12:50 1018 30.06 847 25.01 21.5 70.6 39 7 44.6
12:55 1017 30.03 847 25.01 20.9 69.5 41 7.3 45.2
13:00 1017 30.03 847 25.01 20.2 68.4 39 5.9 42.6
13:05 1017 30.03 847 25.01 19.6 67.4 39 5.5 41.8
13:10 1017 30.03 846 24.98 19.5 67.1 42 6.4 43.5
13:15 1017 30.03 846 24.98 20.4 68.6 39 6.3 43.3
13:20 1017 30.03 846 24.98 21.4 70.5 34 4.8 40.7
13:25 1017 30.03 846 24.98 21.2 70.1 36 5.9 42.6
13:30 1017 30.03 846 24.98 21.2 70.1 35 5.3 41.6
13:35 1017 30.03 846 24.98 20.6 69 38 5.9 42.6
13:40 1017 30.03 846 24.98 20.1 68.3 37 5.3 41.5
13:45 1017 30.03 846 24.98 20.7 69.2 38 6 42.8
13:50 1017 30.03 846 24.98 21.4 70.5 35 5.5 41.9
13:55 1017 30.03 846 24.98 21.1 70 35 5.2 41.4
14:00 1017 30.03 846 24.98 21.1 69.9 36 5.7 42.2
14:05 1017 30.03 846 24.98 21.3 70.3 35 5.5 41.8
14:10 1017 30.03 846 24.98 21 69.7 36 5.7 42.2
14:15 1017 30.03 846 24.98 20.4 68.7 39 6 42.7
14:20 1017 30.03 846 24.98 19.5 67.1 42 6.2 43.2
14:25 1017 30.03 846 24.98 17.9 64.2 46 6.2 43.1
14:30 1017 30.03 846 24.98 17.9 64.2 47 6.4 43.6
14:35 1017 30.03 846 24.98 17.6 63.6 51 7.4 45.4
14:40 1017 30.03 846 24.98 16.6 61.9 56 7.9 46.1
14:45 1017 30.03 846 24.98 16.4 61.4 58 8.1 46.5
14:50 1017 30.03 846 24.98 16.3 61.4 58 8 46.5
14:55 1017 30.03 846 24.98 16 60.9 61 8.6 47.4
15:00 1017 30.03 846 24.98 16 60.9 58 7.9 46.2
15:05 1017 30.03 846 24.98 16.7 62.1 55 7.7 45.8
15:10 1017 30.03 846 24.98 17.8 64.1 51 7.7 45.9
15:15 1017 30.03 846 24.98 18.4 65 51 8.2 46.7
15:20 1017 30.03 846 24.98 18.2 64.8 50 7.9 46.2
15:25 1017 30.03 846 24.98 18.9 66.1 49 8.1 46.5
15:30 1017 30.03 846 24.98 20.4 68.6 41 6.9 44.4
15:35 1017 30.03 846 24.98 20.9 69.5 38 6.3 43.4
15:40 1017 30.03 846 24.98 20.3 68.5 41 6.9 44.5
15:45 1017 30.03 846 24.98 20.7 69.2 38 6.2 43.1
15:50 1017 30.03 846 24.98 20.8 69.4 33 4.2 39.6
15:55 1016 30 846 24.98 20.9 69.6 35 4.9 40.7
16:00 1016 30 846 24.98 21 69.9 30 3.1 37.6
16:05 1016 30 845 24.95 21.4 70.6 30 3.3 38
16:10 1016 30 845 24.95 22.3 72.2 29 3.6 38.5
16:15 1016 30 845 24.95 22.5 72.5 30 4.2 39.6
16:20 1016 30 845 24.95 22 71.5 32 4.8 40.6
16:25 1016 30 845 24.95 21.3 70.3 33 4.5 40.1
16:30 1016 30 845 24.95 22.2 71.9 31 4.5 40.1
16:35 1016 30 845 24.95 21.7 71.1 36 6.2 43.1
16:40 1016 30 845 24.95 21 69.8 39 6.7 44
16:45 1016 30 845 24.95 20.9 69.7 38 6.4 43.6
16:50 1016 30 845 24.95 21 69.9 37 6.1 43
16:55 1016 30 845 24.95 20.8 69.4 38 6.2 43.2
17:00 1016 30 845 24.95 20.3 68.6 38 5.7 42.2
17:05 1016 30 845 24.95 20.3 68.6 38 5.7 42.2
17:10 1016 30 845 24.95 20.7 69.2 35 4.7 40.5
17:15 1016 30 845 24.95 20.9 69.6 34 4.7 40.4
17:20 1016 30 845 24.95 21.3 70.4 33 4.8 40.6
17:25 1016 30 845 24.95 21.2 70.1 32 3.9 39
17:30 1016 30 845 24.95 21.2 70.2 32 4 39.1
17:35 1016 30 845 24.95 21.1 70 32 4 39.2
17:40 1016 30 845 24.95 21.8 71.2 30 3.8 38.9
17:45 1016 30 845 24.95 21.3 70.3 32 3.9 39.1
17:50 1016 30 845 24.95 21.1 70 32 4.1 39.3
17:55 1016 30 845 24.95 20.4 68.7 34 4.1 39.4
18:00 1016 30 845 24.95 20.3 68.6 34 3.9 39.1
18:05 1016 30 845 24.95 20.4 68.7 34 4.1 39.4
18:10 1016 30 845 24.95 20.3 68.5 34 4.2 39.5
18:15 1016 30 845 24.95 20.6 69.1 33 3.8 38.9
18:20 1016 30 845 24.95 20 68 35 4.4 40
18:25 1016 30 845 24.95 19.6 67.3 36 4.5 40.1
18:30 1016 30 845 24.95 19.8 67.6 35 3.9 39.1
18:35 1016 30 845 24.95 19.5 67 37 4.5 40.1
18:40 1016 30 845 24.95 19.5 67.1 39 5.2 41.3
18:45 1016 30 845 24.95 19.2 66.6 41 5.8 42.4
18:50 1016 30 845 24.95 18.9 66.1 41 5.6 42
18:55 1016 30 845 24.95 18.8 65.8 42 5.8 42.4
19:00 1016 30 846 24.98 18.7 65.6 42 5.6 42.1
19:05 1017 30.03 846 24.98 18.6 65.4 43 6 42.8
19:10 1017 30.03 846 24.98 18.2 64.7 51 8.1 46.6
19:15 1017 30.03 846 24.98 17.3 63.1 64 10.4 50.7
19:20 1017 30.03 846 24.98 15.7 60.2 71 10.6 51
19:25 1017 30.03 846 24.98 14.6 58.3 76 10.5 50.9
19:30 1017 30.03 846 24.98 14.1 57.5 77 10.2 50.3
19:35 1017 30.03 846 24.98 14.2 57.6 79 10.7 51.2
19:40 1017 30.03 846 24.98 14.2 57.6 78 10.4 50.8
19:45 1017 30.03 846 24.98 14.2 57.5 80 10.8 51.4
19:50 1017 30.03 846 24.98 14 57.1 78 10.2 50.4
19:55 1017 30.03 846 24.98 14 57.2 80 10.6 51.1
20:00 1017 30.03 846 24.98 14 57.2 83 11.1 52
20:05 1017 30.03 846 24.98 13.8 56.9 85 11.4 52.5
20:10 1017 30.03 846 24.98 13.5 56.3 85 11.1 52
20:15 1017 30.03 846 24.98 13.3 55.9 85 10.8 51.4
20:20 1017 30.03 846 24.98 13.1 55.6 85 10.7 51.2
20:25 1017 30.03 846 24.98 13.4 56.1 83 10.6 51.1
20:30 1017 30.03 846 24.98 13.4 56.2 84 10.8 51.4
20:35 1017 30.03 846 24.98 13.5 56.3 83 10.7 51.3
20:40 1017 30.03 846 24.98 13.6 56.5 81 10.5 50.9
20:45 1017 30.03 846 24.98 13.7 56.7 81 10.6 51.1
20:50 1017 30.03 846 24.98 13.8 56.9 84 11.3 52.3
20:55 1017 30.03 846 24.98 13.5 56.3 85 11.1 52.1
21:00 1017 30.03 846 24.98 13.4 56.1 86 11 51.9
21:05 1017 30.03 846 24.98 13.4 56.1 87 11.2 52.2
21:10 1017 30.03 846 24.98 13.1 55.6 88 11.2 52.1
21:15 1017 30.03 846 24.98 13 55.5 86 10.7 51.2
21:20 1017 30.03 847 25.01 12.9 55.2 85 10.5 50.9
21:25 1017 30.03 847 25.01 12.8 55.1 85 10.3 50.5
21:30 1018 30.06 847 25.01 12.9 55.2 84 10.3 50.6
21:35 1018 30.06 847 25.01 12.8 55.1 85 10.4 50.7
21:40 1018 30.06 847 25.01 12.6 54.6 85 10.2 50.3
21:45 1018 30.06 847 25.01 12.4 54.2 85 9.9 49.7
21:50 1018 30.06 847 25.01 11.8 53.2 85 9.3 48.7
21:55 1018 30.06 847 25.01 11.5 52.7 86 9.3 48.7
22:00 1018 30.06 847 25.01 11.2 52.2 87 9.2 48.5
22:05 1018 30.06 847 25.01 11.2 52.2 86 9 48.2
22:10 1018 30.06 847 25.01 11.2 52.1 86 9 48.1
22:15 1018 30.06 847 25.01 11.1 52 88 9.2 48.5
22:20 1017 30.03 847 25.01 10.9 51.6 90 9.3 48.7
22:25 1017 30.03 846 24.98 10.9 51.5 89 9.2 48.5
22:30 1017 30.03 846 24.98 10.9 51.5 90 9.3 48.7
22:35 1016 30 846 24.98 10.7 51.3 90 9.1 48.3
22:40 1016 30 846 24.98 10.8 51.4 89 9 48.2
22:45 1017 30.03 846 24.98 10.9 51.6 88 9 48.1
22:50 1017 30.03 846 24.98 11 51.8 87 9 48.1
22:55 1017 30.03 846 24.98 11.1 51.9 87 9.1 48.3
23:00 1017 30.03 846 24.98 11.1 51.9 88 9.1 48.4
23:05 1017 30.03 846 24.98 11 51.8 87 9 48.2
23:10 1017 30.03 846 24.98 11.1 51.9 88 9.1 48.5
23:15 1016 30 846 24.98 11 51.8 87 8.9 48
23:20 1016 30 846 24.98 11.1 52 86 8.8 47.9
23:25 1017 30.03 846 24.98 11.1 51.9 87 9 48.3
23:30 1017 30.03 846 24.98 10.8 51.4 88 8.8 47.9
23:35 1017 30.03 846 24.98 10.7 51.2 89 8.9 48
23:40 1017 30.03 846 24.98 10.5 50.9 89 8.7 47.7
23:45 1017 30.03 846 24.98 10.3 50.6 90 8.7 47.7
23:50 1017 30.03 846 24.98 10.3 50.5 90 8.7 47.7
23:55 1017 30.03 846 24.98 10.2 50.4 90 8.7 47.7
24:00 1017 30.03 846 24.98 10.2 50.4 90 8.7 47.6